Time;durP1;ratioP1;P1;durP2;ratioP2;P2;SDS_P1;SDS_P2;PMS_P1;PMS_P2;Temp;Humidity;BMP_temperature;BMP_pressure;BME280_temperature;BME280_humidity;BME280_pressure;Samples;Min_cycle;Max_cycle;Signal;HPM_P1;HPM_P2
2021/07/27 00:00:08;;;;;;;;;21.25;20.25;;;;;19.58;70.39;100572.03;5055039;28;70151;-60
2021/07/27 00:02:33;;;;;;;;;15.50;15.50;;;;;19.60;70.50;100569.16;5057397;27;46202;-61
2021/07/27 00:04:58;;;;;;;;;22.50;18.50;;;;;19.58;70.21;100566.69;5055861;28;73114;-61
2021/07/27 00:07:24;;;;;;;;;18.50;18.50;;;;;19.57;70.10;100565.06;5057022;28;45421;-61
2021/07/27 00:09:49;;;;;;;;;21.25;17.50;;;;;19.56;69.91;100558.88;5055863;28;68599;-60
2021/07/27 00:12:15;;;;;;;;;22.00;19.50;;;;;19.55;70.05;100546.59;5056718;28;45548;-60
2021/07/27 00:14:40;;;;;;;;;22.75;20.00;;;;;19.56;70.26;100552.75;5055725;28;73143;-60
2021/07/27 00:17:05;;;;;;;;;18.25;17.00;;;;;19.56;70.44;100553.56;5056999;28;45430;-60
2021/07/27 00:19:31;;;;;;;;;15.00;14.00;;;;;19.54;70.09;100552.13;5055539;28;69554;-59
2021/07/27 00:21:56;;;;;;;;;18.75;16.00;;;;;19.54;69.77;100552.13;5056687;28;45946;-61
2021/07/27 00:24:26;;;;;;;;;17.00;16.25;;;;;19.52;70.28;100556.81;5055567;28;70269;-59
2021/07/27 00:26:51;;;;;;;;;17.00;15.50;;;;;19.49;70.20;100555.34;5057145;27;45267;-60
2021/07/27 00:29:16;;;;;;;;;16.50;15.25;;;;;19.46;70.41;100552.25;5055942;28;59580;-61
2021/07/27 00:31:42;;;;;;;;;19.50;16.50;;;;;19.43;70.27;100556.13;5055364;28;68367;-60
2021/07/27 00:34:07;;;;;;;;;19.25;18.25;;;;;19.40;70.64;100559.19;5055432;28;69293;-59
2021/07/27 00:36:32;;;;;;;;;20.25;17.25;;;;;19.39;70.47;100562.84;5055602;28;60120;-60
2021/07/27 00:38:58;;;;;;;;;19.25;15.00;;;;;19.41;70.30;100551.00;5057140;27;45574;-60
2021/07/27 00:41:23;;;;;;;;;19.00;18.00;;;;;19.43;70.37;100545.47;5056261;28;45358;-60
2021/07/27 00:43:49;;;;;;;;;15.00;14.50;;;;;19.46;70.32;100545.09;5055249;28;70381;-60
2021/07/27 00:46:14;;;;;;;;;20.50;16.50;;;;;19.45;70.27;100540.75;5055196;28;67466;-60
2021/07/27 00:48:39;;;;;;;;;16.25;15.25;;;;;19.43;69.99;100538.31;5056225;28;45538;-60
2021/07/27 00:51:05;;;;;;;;;23.00;18.00;;;;;19.45;70.58;100539.97;5054902;28;74970;-61
2021/07/27 00:53:30;;;;;;;;;18.00;16.75;;;;;19.43;70.74;100534.81;5055929;28;45442;-60
2021/07/27 00:55:55;;;;;;;;;17.50;14.00;;;;;19.45;70.29;100537.28;5055004;28;45563;-60
2021/07/27 00:58:21;;;;;;;;;20.00;16.50;;;;;19.45;70.33;100542.63;5037244;28;68882;-61
2021/07/27 01:00:47;;;;;;;;;18.00;17.50;;;;;19.42;70.19;100541.16;5055698;28;46945;-60
2021/07/27 01:03:12;;;;;;;;;21.25;18.25;;;;;19.41;70.26;100540.34;5055972;28;45349;-60
2021/07/27 01:05:37;;;;;;;;;20.50;16.50;;;;;19.38;70.38;100538.06;5054900;28;45455;-60
2021/07/27 01:08:03;;;;;;;;;19.25;18.00;;;;;19.37;70.37;100525.75;5055077;28;68278;-61
2021/07/27 01:10:29;;;;;;;;;19.75;17.50;;;;;19.39;70.05;100531.72;5056017;28;47034;-60
2021/07/27 01:12:54;;;;;;;;;18.75;16.50;;;;;19.40;70.34;100532.53;5059469;28;45474;-60
2021/07/27 01:15:20;;;;;;;;;17.75;15.25;;;;;19.39;70.50;100537.06;5058471;28;68181;-60
2021/07/27 01:17:45;;;;;;;;;19.00;17.00;;;;;19.39;70.67;100541.53;5059533;28;45157;-60
2021/07/27 01:44:01;;;;;;;;;18.75;17.25;;;;;19.31;70.28;100536.38;5058826;28;45358;-60
2021/07/27 01:46:28;;;;;;;;;19.75;15.25;;;;;19.28;70.10;100530.44;5058900;28;47033;-60
2021/07/27 01:48:54;;;;;;;;;19.00;17.50;;;;;19.29;70.58;100525.91;5059193;28;45542;-60
2021/07/27 01:51:19;;;;;;;;;18.25;17.50;;;;;19.27;70.08;100527.94;5057893;28;75531;-60
2021/07/27 01:53:49;;;;;;;;;19.75;15.75;;;;;19.26;70.28;100527.13;5058797;28;45224;-60
2021/07/27 01:56:17;;;;;;;;;17.00;16.00;;;;;19.25;70.13;100521.97;5058845;28;45383;-60
2021/07/27 01:58:43;;;;;;;;;19.50;16.50;;;;;19.23;70.22;100514.19;5058608;28;45458;-60
2021/07/27 02:01:08;;;;;;;;;18.25;15.00;;;;;19.25;70.42;100519.31;5057782;28;73132;-60
2021/07/27 02:03:33;;;;;;;;;19.00;17.00;;;;;19.23;70.14;100516.88;5057823;28;67898;-60
2021/07/27 02:05:59;;;;;;;;;19.00;15.25;;;;;19.22;70.14;100509.88;5057899;28;62918;-59
2021/07/27 02:08:24;;;;;;;;;15.50;14.75;;;;;19.21;70.36;100518.06;5057887;28;66360;-60
2021/07/27 02:10:57;;;;;;;;;19.25;16.50;;;;;19.20;70.38;100516.41;5058452;28;45372;-60
2021/07/27 02:13:48;;;;;;;;;17.50;15.50;;;;;19.18;70.29;100505.13;5058505;28;45900;-60
2021/07/27 02:16:13;;;;;;;;;18.25;16.00;;;;;19.15;70.34;100513.50;5058683;28;45405;-60
2021/07/27 02:18:39;;;;;;;;;18.00;16.50;;;;;19.13;70.52;100505.72;5058590;28;45346;-59
2021/07/27 02:21:04;;;;;;;;;19.00;15.75;;;;;19.12;70.36;100510.22;5055977;28;70145;-60
2021/07/27 02:23:30;;;;;;;;;18.50;17.00;;;;;19.09;70.88;100513.25;5056443;28;72153;-60
2021/07/27 02:25:55;;;;;;;;;17.25;17.25;;;;;19.10;70.82;100511.44;5058539;28;45480;-59
2021/07/27 02:28:20;;;;;;;;;24.50;15.75;;;;;19.09;70.77;100513.25;5056748;28;56746;-61
2021/07/27 02:30:53;;;;;;;;;14.00;14.00;;;;;19.11;70.56;100513.06;5057824;28;53555;-60
2021/07/27 02:33:19;;;;;;;;;16.50;15.50;;;;;19.11;70.74;100513.88;5058356;28;45438;-59
2021/07/27 02:35:44;;;;;;;;;24.50;20.25;;;;;19.11;70.54;100503.22;5057920;28;49089;-60
2021/07/27 02:38:11;;;;;;;;;20.25;20.25;;;;;19.13;70.76;100513.72;5057221;28;68103;-60
2021/07/27 02:40:36;;;;;;;;;17.75;17.25;;;;;19.13;70.30;100511.03;5057998;28;46330;-60
2021/07/27 02:43:03;;;;;;;;;17.25;15.75;;;;;19.13;70.56;100509.19;5057407;28;69914;-59
2021/07/27 02:45:29;;;;;;;;;14.50;13.25;;;;;19.15;70.45;100505.50;5058152;28;45231;-60
2021/07/27 02:47:54;;;;;;;;;16.00;16.00;;;;;19.12;70.10;100502.22;5057604;28;54476;-60
2021/07/27 02:50:19;;;;;;;;;18.25;17.00;;;;;19.13;70.70;100506.53;5056869;28;75656;-59
2021/07/27 02:52:45;;;;;;;;;21.50;17.25;;;;;19.13;70.33;100505.72;5057621;28;52255;-60
2021/07/27 02:55:11;;;;;;;;;17.50;14.50;;;;;19.13;70.31;100506.53;5057642;28;47322;-60
2021/07/27 02:57:36;;;;;;;;;19.00;17.75;;;;;19.12;70.56;100504.06;5057792;28;46495;-59
2021/07/27 03:00:03;;;;;;;;;20.25;18.75;;;;;19.14;70.12;100504.69;5057442;28;50455;-60
2021/07/27 03:02:36;;;;;;;;;17.00;16.25;;;;;19.15;69.89;100502.84;5057773;28;45324;-60
2021/07/27 03:05:01;;;;;;;;;18.25;15.75;;;;;19.13;70.46;100505.72;5057891;28;45402;-60
2021/07/27 03:07:36;;;;;;;;;19.75;16.25;;;;;19.09;69.97;100502.59;5057698;28;45549;-59
2021/07/27 03:10:17;;;;;;;;;17.75;16.75;;;;;19.07;70.49;100503.81;5057752;28;46187;-60
2021/07/27 03:12:52;;;;;;;;;17.00;16.25;;;;;19.05;70.45;100501.38;5057653;28;45331;-60
2021/07/27 03:15:21;;;;;;;;;21.00;18.25;;;;;19.05;70.32;100497.88;5057630;28;45243;-60
2021/07/27 03:17:46;;;;;;;;;18.75;15.00;;;;;19.05;70.41;100503.19;5057488;28;45468;-59
2021/07/27 03:20:14;;;;;;;;;16.75;15.25;;;;;19.04;70.69;100501.53;5057233;28;46099;-60
2021/07/27 03:22:40;;;;;;;;;17.75;14.25;;;;;19.05;70.76;100497.88;5057819;27;45876;-60
2021/07/27 03:25:10;;;;;;;;;15.50;15.25;;;;;19.02;70.64;100483.13;5058055;27;46016;-60
2021/07/27 03:27:36;;;;;;;;;16.00;15.50;;;;;19.02;70.57;100480.44;5057539;28;45259;-60
2021/07/27 03:30:01;;;;;;;;;19.00;16.50;;;;;19.04;70.59;100485.56;5056194;28;76112;-60
2021/07/27 03:32:26;;;;;;;;;17.00;15.75;;;;;19.04;70.48;100482.91;5056367;28;73140;-60
2021/07/27 03:34:52;;;;;;;;;16.25;16.00;;;;;19.03;70.71;100474.13;5056247;28;65938;-60
2021/07/27 03:37:17;;;;;;;;;19.75;17.75;;;;;19.02;70.58;100472.47;5056366;28;68776;-61
2021/07/27 03:39:43;;;;;;;;;18.75;16.50;;;;;19.03;70.18;100474.13;5056047;28;74398;-60
2021/07/27 03:42:08;;;;;;;;;17.75;15.25;;;;;19.03;70.39;100470.59;5057145;28;45367;-60
2021/07/27 03:44:34;;;;;;;;;19.25;18.25;;;;;19.01;70.54;100462.81;5057133;28;45305;-60
2021/07/27 03:47:02;;;;;;;;;22.75;17.25;;;;;19.00;70.65;100465.66;5057202;28;45576;-60
2021/07/27 03:49:29;;;;;;;;;16.50;15.50;;;;;18.97;70.73;100456.25;5056864;28;46408;-60
2021/07/27 03:51:55;;;;;;;;;18.50;16.00;;;;;18.97;70.65;100458.91;5057089;28;45457;-60
2021/07/27 03:54:20;;;;;;;;;20.25;18.00;;;;;18.96;70.85;100454.59;5057078;28;45247;-60
2021/07/27 03:56:45;;;;;;;;;19.75;17.25;;;;;18.96;71.04;100454.59;5055864;28;68580;-60
2021/07/27 03:59:14;;;;;;;;;15.00;15.00;;;;;18.97;70.87;100453.59;5055900;28;70142;-60
2021/07/27 04:01:39;;;;;;;;;18.00;15.25;;;;;18.97;71.12;100450.91;5056713;28;45849;-61
2021/07/27 04:04:05;;;;;;;;;17.00;15.75;;;;;18.98;70.63;100444.56;5055921;28;67357;-60
2021/07/27 04:06:30;;;;;;;;;19.75;17.75;;;;;18.99;70.63;100443.56;5056898;28;45462;-61
2021/07/27 04:08:59;;;;;;;;;19.00;16.75;;;;;18.99;70.80;100440.91;5055590;28;74735;-60
2021/07/27 04:11:24;;;;;;;;;17.25;17.00;;;;;18.99;70.30;100446.22;5055882;28;66796;-60
2021/07/27 04:13:49;;;;;;;;;17.00;17.00;;;;;18.97;70.51;100440.28;5056761;28;45186;-60
2021/07/27 04:16:15;;;;;;;;;16.00;15.25;;;;;18.97;70.69;100440.28;5056048;28;60350;-61
2021/07/27 04:18:40;;;;;;;;;15.75;13.75;;;;;18.98;70.57;100444.56;5056549;28;45232;-60
2021/07/27 04:21:05;;;;;;;;;17.25;15.25;;;;;18.98;70.57;100436.59;5055293;28;73287;-60
2021/07/27 04:23:31;;;;;;;;;18.75;17.50;;;;;18.99;70.56;100432.91;5056651;28;45171;-60
2021/07/27 04:25:57;;;;;;;;;20.25;15.00;;;;;19.01;70.51;100443.34;5055881;28;64330;-60
2021/07/27 04:28:22;;;;;;;;;19.75;14.75;;;;;18.99;70.28;100446.22;5056319;28;48398;-60
2021/07/27 04:30:48;;;;;;;;;15.00;11.75;;;;;19.00;69.90;100455.84;5055364;28;71230;-60
2021/07/27 04:33:16;;;;;;;;;15.50;13.50;;;;;19.01;69.91;100449.50;5055659;28;63641;-60
2021/07/27 04:35:42;;;;;;;;;16.25;15.25;;;;;19.02;69.59;100450.31;5056247;28;45379;-60
2021/07/27 04:38:07;;;;;;;;;17.00;13.25;;;;;19.03;69.27;100460.78;5055177;28;74217;-60
2021/07/27 04:40:33;;;;;;;;;15.25;13.25;;;;;19.05;69.28;100456.09;5056672;27;45307;-59
2021/07/27 04:42:59;;;;;;;;;18.75;15.75;;;;;19.06;69.28;100457.75;5055251;28;69320;-60
2021/07/27 04:45:27;;;;;;;;;15.00;13.25;;;;;19.05;69.09;100461.44;5055712;28;45593;-60
2021/07/27 04:47:53;;;;;;;;;17.25;14.50;;;;;19.07;69.37;100458.56;5056108;28;45934;-60
2021/07/27 04:50:18;;;;;;;;;19.50;16.25;;;;;19.07;69.06;100453.22;5055247;28;70907;-60
2021/07/27 04:52:49;;;;;;;;;14.50;13.00;;;;;19.08;69.07;100447.69;5055151;28;69227;-60
2021/07/27 04:55:15;;;;;;;;;16.50;15.00;;;;;19.11;69.13;100444.66;5056750;27;45490;-60
2021/07/27 04:57:40;;;;;;;;;17.25;15.50;;;;;19.16;69.09;100432.59;5054851;28;45383;-60
2021/07/27 05:00:16;;;;;;;;;15.25;13.00;;;;;19.19;69.31;100421.53;5055327;28;67738;-60
2021/07/27 05:02:41;;;;;;;;;16.75;15.50;;;;;19.22;69.36;100422.00;5056308;28;45344;-60
2021/07/27 05:05:07;;;;;;;;;15.25;13.25;;;;;19.24;68.74;100424.44;5054837;28;69730;-59
2021/07/27 05:07:35;;;;;;;;;16.25;13.75;;;;;19.27;68.96;100426.72;5055643;28;48722;-60
2021/07/27 05:10:00;;;;;;;;;14.00;12.75;;;;;19.30;69.28;100436.97;5054769;28;72285;-60
2021/07/27 05:12:26;;;;;;;;;17.25;15.25;;;;;19.33;68.45;100454.44;5054974;28;69328;-60
2021/07/27 05:14:51;;;;;;;;;15.75;12.25;;;;;19.34;68.24;100451.56;5055169;28;63665;-60
2021/07/27 05:17:16;;;;;;;;;15.25;14.00;;;;;19.35;68.44;100445.22;5054752;28;75587;-60
2021/07/27 05:19:50;;;;;;;;;16.25;15.25;;;;;19.37;68.78;100448.50;5055141;28;52518;-59
2021/07/27 05:22:15;;;;;;;;;20.75;13.25;;;;;19.39;68.42;100446.47;5055792;28;45258;-60
2021/07/27 05:24:41;;;;;;;;;17.00;16.00;;;;;19.42;68.24;100445.22;5055571;28;45418;-60
2021/07/27 05:27:06;;;;;;;;;16.00;14.25;;;;;19.42;68.14;100446.06;5054636;28;75578;-60
2021/07/27 05:29:31;;;;;;;;;18.75;16.25;;;;;19.46;68.53;100454.47;5055080;28;65946;-61
2021/07/27 05:31:57;;;;;;;;;16.00;14.75;;;;;19.46;68.27;100462.47;5054897;28;69239;-60
2021/07/27 05:34:22;;;;;;;;;19.00;15.25;;;;;19.46;68.23;100462.47;5055804;28;45220;-60
2021/07/27 05:36:49;;;;;;;;;14.00;13.00;;;;;19.46;68.07;100459.00;5055934;27;46330;-60
2021/07/27 05:39:14;;;;;;;;;18.25;14.75;;;;;19.46;68.27;100459.00;5056253;27;45245;-60
2021/07/27 05:41:40;;;;;;;;;17.50;14.25;;;;;19.47;67.77;100466.78;5055697;28;45285;-61
2021/07/27 05:44:05;;;;;;;;;17.00;12.50;;;;;19.47;68.21;100464.13;5055747;28;45276;-60
2021/07/27 05:46:30;;;;;;;;;17.00;15.25;;;;;19.46;67.88;100459.81;5054691;28;63828;-60
2021/07/27 05:48:56;;;;;;;;;18.75;15.75;;;;;19.46;68.45;100467.00;5054319;28;68918;-60
2021/07/27 05:51:22;;;;;;;;;23.50;17.75;;;;;19.47;68.09;100477.44;5055996;27;45366;-59
2021/07/27 05:53:47;;;;;;;;;20.50;16.00;;;;;19.49;68.09;100477.25;5055601;28;45436;-60
2021/07/27 05:56:13;;;;;;;;;17.25;14.00;;;;;19.49;68.29;100472.75;5053887;28;50116;-60
2021/07/27 05:58:38;;;;;;;;;16.00;15.50;;;;;19.50;67.89;100479.72;5056306;28;70390;-60
2021/07/27 06:01:07;;;;;;;;;16.25;14.75;;;;;19.51;68.16;100475.22;5057829;28;69373;-60
2021/07/27 06:03:32;;;;;;;;;17.00;15.75;;;;;19.53;67.78;100481.19;5057508;28;45594;-60
2021/07/27 06:05:57;;;;;;;;;19.00;17.00;;;;;19.54;67.85;100475.66;5058900;27;45350;-59
2021/07/27 06:08:23;;;;;;;;;16.50;15.25;;;;;19.56;67.69;100484.25;5057715;28;66503;-60
2021/07/27 06:10:48;;;;;;;;;16.75;13.00;;;;;19.56;67.98;100484.25;5057695;28;67997;-60
2021/07/27 06:13:13;;;;;;;;;19.50;14.25;;;;;19.57;67.86;100493.91;5057532;28;70418;-59
2021/07/27 06:15:39;;;;;;;;;17.50;16.75;;;;;19.57;67.80;100491.25;5057296;28;74746;-61
2021/07/27 06:18:04;;;;;;;;;15.50;15.50;;;;;19.58;67.77;100498.22;5057462;28;72448;-59
2021/07/27 06:20:30;;;;;;;;;19.25;15.25;;;;;19.59;67.62;100496.38;5058891;27;45419;-59
2021/07/27 06:22:55;;;;;;;;;18.75;15.00;;;;;19.62;67.35;100495.97;5057457;28;65456;-61
2021/07/27 06:25:20;;;;;;;;;20.50;18.50;;;;;19.64;67.48;100506.44;5057375;28;71200;-59
2021/07/27 06:27:46;;;;;;;;;15.25;14.75;;;;;19.66;67.66;100512.41;5057637;28;68323;-60
2021/07/27 06:30:12;;;;;;;;;14.25;13.75;;;;;19.68;67.65;100518.38;5057502;28;67335;-59
2021/07/27 06:32:38;;;;;;;;;18.25;15.50;;;;;19.69;67.28;100518.16;5058352;28;45350;-61
2021/07/27 06:35:03;;;;;;;;;14.50;13.75;;;;;19.70;66.93;100517.13;5057206;28;69878;-60
2021/07/27 06:37:29;;;;;;;;;16.50;16.00;;;;;19.71;67.18;100513.44;5058301;28;45330;-60
2021/07/27 06:39:54;;;;;;;;;18.50;14.75;;;;;19.72;67.16;100503.63;5057129;28;68315;-60
2021/07/27 06:42:20;;;;;;;;;16.00;14.75;;;;;19.73;67.00;100510.59;5058078;28;45352;-60
2021/07/27 06:44:45;;;;;;;;;17.25;13.75;;;;;19.75;66.85;100510.41;5056991;28;74915;-60
2021/07/27 06:47:10;;;;;;;;;18.00;15.00;;;;;19.76;66.88;100512.03;5057254;28;67858;-61
2021/07/27 06:49:36;;;;;;;;;20.00;15.75;;;;;19.78;66.50;100512.66;5057385;28;63778;-60
2021/07/27 06:52:01;;;;;;;;;16.25;14.50;;;;;19.79;67.01;100509.81;5057795;28;53434;-60
2021/07/27 06:54:27;;;;;;;;;16.50;12.75;;;;;19.79;66.27;100509.81;5057506;28;45297;-60
2021/07/27 06:56:55;;;;;;;;;12.75;12.25;;;;;19.79;66.51;100508.97;5057108;28;66661;-60
2021/07/27 06:59:23;;;;;;;;;19.25;16.75;;;;;19.79;66.59;100515.16;5058020;28;45362;-60
2021/07/27 07:01:49;;;;;;;;;16.50;13.75;;;;;19.80;66.37;100522.13;5056745;28;45566;-60
2021/07/27 07:04:14;;;;;;;;;17.50;14.75;;;;;19.81;66.82;100522.94;5057838;28;48498;-60
2021/07/27 07:06:40;;;;;;;;;15.00;13.25;;;;;19.82;66.24;100517.41;5057609;28;45313;-60
2021/07/27 07:09:05;;;;;;;;;15.25;14.25;;;;;19.84;66.52;100533.22;5057320;28;45284;-60
2021/07/27 07:11:31;;;;;;;;;17.50;13.75;;;;;19.85;65.94;100527.69;5056554;28;70527;-60
2021/07/27 07:13:56;;;;;;;;;18.50;15.25;;;;;19.86;66.14;100532.00;5057465;28;46146;-61
2021/07/27 07:16:22;;;;;;;;;16.25;13.25;;;;;19.89;65.56;100535.31;5056913;28;55831;-60
2021/07/27 07:18:47;;;;;;;;;14.25;12.75;;;;;19.87;65.51;100538.94;5056800;28;58487;-61
2021/07/27 07:21:12;;;;;;;;;14.00;12.75;;;;;19.87;65.50;100528.28;5056255;28;64781;-60
2021/07/27 07:23:38;;;;;;;;;14.00;12.75;;;;;19.86;65.06;100529.34;5056731;28;65251;-60
2021/07/27 07:26:06;;;;;;;;;14.25;13.75;;;;;19.86;65.33;100531.16;5057541;28;45334;-60
2021/07/27 07:28:32;;;;;;;;;14.00;13.00;;;;;19.87;64.96;100533.63;5057647;28;45291;-59
2021/07/27 07:30:57;;;;;;;;;11.75;10.75;;;;;19.90;64.25;100536.94;5057560;28;45510;-60
2021/07/27 07:33:22;;;;;;;;;14.50;13.00;;;;;19.93;64.84;100541.88;5057142;28;47784;-60
2021/07/27 07:35:48;;;;;;;;;20.25;16.25;;;;;19.96;64.65;100545.00;5056256;28;70332;-60
2021/07/27 07:38:13;;;;;;;;;14.25;14.25;;;;;19.97;64.34;100543.97;5056444;28;66964;-60
2021/07/27 07:40:39;;;;;;;;;17.25;14.25;;;;;20.00;65.08;100542.75;5057900;27;45306;-61
2021/07/27 07:43:04;;;;;;;;;14.25;14.25;;;;;20.02;64.88;100535.38;5057144;28;53905;-60
2021/07/27 07:45:29;;;;;;;;;15.25;12.25;;;;;20.06;64.41;100536.63;5056929;28;51859;-60
2021/07/27 07:47:55;;;;;;;;;15.25;14.25;;;;;20.11;64.19;100538.69;5057149;28;45432;-61
2021/07/27 07:50:21;;;;;;;;;17.75;14.00;;;;;20.18;64.50;100542.19;5056501;28;57524;-60
2021/07/27 07:52:46;;;;;;;;;10.25;10.25;;;;;20.23;63.57;100536.28;5056860;28;46201;-61
2021/07/27 07:55:12;;;;;;;;;12.50;10.50;;;;;20.26;64.36;100536.69;5056556;28;45585;-60
2021/07/27 07:57:38;;;;;;;;;15.50;15.25;;;;;20.31;64.23;100544.91;5056777;27;45416;-60
2021/07/27 08:00:05;;;;;;;;;14.50;13.25;;;;;20.35;63.70;100537.34;5056947;28;45344;-60
2021/07/27 08:02:30;;;;;;;;;17.00;16.00;;;;;20.39;63.70;100546.59;5062318;28;46840;-60
2021/07/27 08:04:56;;;;;;;;;16.25;16.00;;;;;20.42;63.24;100545.34;5072585;27;70163;-60
2021/07/27 08:07:21;;;;;;;;;18.50;16.00;;;;;20.44;63.49;100548.66;5065523;28;45378;-60
2021/07/27 08:09:47;;;;;;;;;15.50;13.25;;;;;20.46;62.44;100549.28;5063717;27;45521;-60
2021/07/27 08:12:15;;;;;;;;;16.00;11.25;;;;;20.45;62.35;100544.97;5064045;27;74543;-60
2021/07/27 08:14:43;;;;;;;;;17.25;14.00;;;;;20.46;62.74;100558.09;5069700;28;46122;-60
2021/07/27 08:17:09;;;;;;;;;17.25;14.00;;;;;20.49;62.08;100551.53;5075675;27;45455;-61
2021/07/27 08:19:34;;;;;;;;;12.75;12.00;;;;;20.52;63.00;100544.97;5075214;27;45586;-60
2021/07/27 08:22:00;;;;;;;;;14.25;12.25;;;;;20.52;61.97;100548.47;5071914;27;75564;-60
2021/07/27 08:24:26;;;;;;;;;15.75;14.00;;;;;20.52;62.08;100553.81;5073532;27;45465;-60
2021/07/27 08:26:51;;;;;;;;;12.50;12.00;;;;;20.53;62.28;100552.78;5073894;27;47624;-60
2021/07/27 08:29:16;;;;;;;;;16.00;13.50;;;;;20.54;62.07;100546.44;5073447;27;66678;-61
2021/07/27 08:31:42;;;;;;;;;15.25;14.00;;;;;20.56;61.81;100540.88;5073578;27;71387;-60
2021/07/27 08:34:07;;;;;;;;;14.50;14.00;;;;;20.57;61.86;100543.34;5074353;28;45457;-61
2021/07/27 08:36:33;;;;;;;;;14.00;12.50;;;;;20.57;61.92;100535.34;5074358;27;45568;-61
2021/07/27 08:38:58;;;;;;;;;12.75;12.75;;;;;20.56;62.00;100538.19;5054517;28;45547;-60
2021/07/27 08:41:24;;;;;;;;;16.25;13.75;;;;;20.57;62.58;100539.84;5068174;27;73398;-59
2021/07/27 08:43:49;;;;;;;;;13.75;13.00;;;;;20.56;62.39;100549.72;5069065;28;45496;-60
2021/07/27 08:46:17;;;;;;;;;14.25;13.75;;;;;20.58;62.30;100553.00;5068969;28;60973;-60
2021/07/27 08:48:43;;;;;;;;;13.25;13.00;;;;;20.56;61.57;100533.69;5070139;28;45455;-60
2021/07/27 08:51:08;;;;;;;;;15.25;14.25;;;;;20.57;61.46;100535.34;5070054;27;45885;-61
2021/07/27 08:53:33;;;;;;;;;14.00;14.00;;;;;20.57;62.52;100526.50;5049253;28;68475;-60
2021/07/27 08:55:59;;;;;;;;;12.50;11.75;;;;;20.57;62.26;100532.69;5067715;28;69322;-61
2021/07/27 09:01:46;;;;;;;;;16.25;14.50;;;;;20.56;63.28;100531.03;5074060;28;45290;-61
2021/07/27 09:04:12;;;;;;;;;13.00;13.00;;;;;20.57;62.83;100530.00;5073014;27;45388;-60
2021/07/27 09:06:37;;;;;;;;;17.75;14.50;;;;;20.57;63.54;100535.34;5072285;27;45387;-60
2021/07/27 09:09:09;;;;;;;;;17.75;14.25;;;;;20.58;63.37;100533.47;5069559;28;45592;-61
2021/07/27 09:11:48;;;;;;;;;14.25;14.00;;;;;20.57;63.99;100539.84;5069914;28;45601;-61
2021/07/27 09:14:15;;;;;;;;;14.25;14.00;;;;;20.58;64.23;100536.16;5067457;28;45471;-59
2021/07/27 09:17:06;;;;;;;;;16.00;14.75;;;;;20.58;63.79;100539.66;5069383;28;45450;-60
2021/07/27 09:19:41;;;;;;;;;15.00;13.25;;;;;20.57;64.10;100535.34;5063870;27;62222;-60
2021/07/27 09:22:07;;;;;;;;;14.75;13.75;;;;;20.58;64.22;100539.66;5072109;28;46135;-60
2021/07/27 09:24:33;;;;;;;;;20.25;14.00;;;;;20.57;63.88;100537.19;5072022;27;45436;-60
2021/07/27 09:27:01;;;;;;;;;18.00;14.00;;;;;20.55;64.24;100542.72;5073144;28;45450;-60
2021/07/27 09:29:28;;;;;;;;;14.25;13.75;;;;;20.56;64.40;100535.53;5074355;27;45517;-59
2021/07/27 09:31:54;;;;;;;;;15.00;13.75;;;;;20.57;64.80;100546.03;5073865;27;45887;-61
2021/07/27 09:34:19;;;;;;;;;16.75;16.00;;;;;20.56;64.19;100541.72;5076565;27;45425;-60
2021/07/27 09:36:45;;;;;;;;;15.50;12.75;;;;;20.59;64.19;100543.13;5074823;27;45480;-60
2021/07/27 09:39:10;;;;;;;;;16.25;13.25;;;;;20.59;64.28;100540.47;5072134;28;45631;-61
2021/07/27 09:41:36;;;;;;;;;14.75;13.50;;;;;20.60;64.87;100540.28;5072693;27;46236;-60
2021/07/27 09:44:01;;;;;;;;;17.00;15.75;;;;;20.64;64.31;100542.53;5067434;28;56904;-61
2021/07/27 09:46:27;;;;;;;;;16.50;13.50;;;;;20.66;64.15;100540.50;5075379;28;46268;-60
2021/07/27 09:48:53;;;;;;;;;18.25;16.00;;;;;20.67;64.48;100542.13;5076199;27;47644;-60
2021/07/27 09:51:18;;;;;;;;;16.75;15.75;;;;;20.68;64.24;100544.59;5076642;27;45562;-61
2021/07/27 09:53:47;;;;;;;;;13.25;13.00;;;;;20.67;64.80;100544.78;5075418;28;46215;-60
2021/07/27 09:56:13;;;;;;;;;13.00;13.00;;;;;20.66;64.42;100541.31;5074246;28;45494;-61
2021/07/27 09:58:38;;;;;;;;;19.25;17.75;;;;;20.68;64.88;100547.25;5075829;28;45461;-61
2021/07/27 10:01:13;;;;;;;;;21.00;19.75;;;;;20.69;64.25;100542.72;5075621;28;45466;-60
2021/07/27 10:03:59;;;;;;;;;14.50;14.50;;;;;20.68;63.80;100544.59;5058655;28;45929;-60
2021/07/27 10:06:26;;;;;;;;;18.50;16.50;;;;;20.68;64.46;100544.59;5076319;27;45440;-60
2021/07/27 10:08:58;;;;;;;;;16.75;15.25;;;;;20.70;63.75;100557.72;5058813;28;45505;-60
2021/07/27 10:11:43;;;;;;;;;18.25;15.75;;;;;20.69;64.37;100558.75;5076239;27;46190;-60
2021/07/27 10:14:10;;;;;;;;;15.00;15.00;;;;;20.69;63.73;100566.75;5073864;27;45654;-61
2021/07/27 10:16:36;;;;;;;;;17.50;13.00;;;;;20.70;64.02;100568.41;5072614;27;45498;-60
2021/07/27 10:19:14;;;;;;;;;19.75;15.75;;;;;20.70;64.00;100563.91;5071830;28;45521;-61
2021/07/27 10:21:39;;;;;;;;;18.00;14.00;;;;;20.70;64.35;100566.56;5071486;28;46058;-61
2021/07/27 10:24:15;;;;;;;;;17.50;16.00;;;;;20.73;64.20;100570.66;5074456;28;49888;-60
2021/07/27 10:26:41;;;;;;;;;20.50;16.50;;;;;20.72;64.31;100574.38;5072892;28;45220;-60
2021/07/27 10:29:06;;;;;;;;;14.25;14.00;;;;;20.73;64.72;100576.00;5070916;27;45524;-60
2021/07/27 10:31:42;;;;;;;;;16.50;13.75;;;;;20.73;63.74;100578.69;5087140;27;45776;-60
2021/07/27 10:34:09;;;;;;;;;17.50;15.25;;;;;20.75;64.14;100576.63;5072319;28;46074;-60
2021/07/27 10:36:44;;;;;;;;;15.00;14.00;;;;;20.74;64.30;100575.00;5072504;28;45521;-61
2021/07/27 10:39:13;;;;;;;;;17.00;14.50;;;;;20.74;64.43;100577.66;5074589;27;45279;-60
2021/07/27 10:41:40;;;;;;;;;13.00;12.25;;;;;20.74;63.69;100567.81;5072407;28;46318;-61
2021/07/27 10:44:13;;;;;;;;;17.75;15.25;;;;;20.74;64.10;100566.97;5075053;28;46015;-60
2021/07/27 10:46:59;;;;;;;;;18.00;15.00;;;;;20.74;63.40;100575.00;5073866;28;45469;-61
2021/07/27 10:49:25;;;;;;;;;16.25;13.50;;;;;20.73;64.26;100574.19;5073727;27;46257;-60
2021/07/27 10:51:55;;;;;;;;;13.50;13.00;;;;;20.72;63.99;100579.72;5076089;27;46356;-60
2021/07/27 10:54:30;;;;;;;;;14.50;14.50;;;;;20.71;64.22;100578.91;5074433;28;45351;-60
2021/07/27 10:57:03;;;;;;;;;17.25;15.00;;;;;20.70;64.39;100579.94;5074920;27;45433;-60
2021/07/27 10:59:32;;;;;;;;;17.75;14.00;;;;;20.68;64.60;100560.63;5076056;27;45446;-60
2021/07/27 11:02:10;;;;;;;;;11.25;11.25;;;;;20.69;64.46;100550.75;5076177;27;47411;-60
2021/07/27 11:04:36;;;;;;;;;14.00;12.00;;;;;20.70;64.92;100553.22;5075675;27;46058;-60
2021/07/27 11:07:14;;;;;;;;;15.50;13.50;;;;;20.72;64.66;100550.34;5071507;27;59617;-60
2021/07/27 11:09:50;;;;;;;;;16.25;13.75;;;;;20.74;64.61;100554.47;5074016;27;45434;-61
2021/07/27 11:12:41;;;;;;;;;17.25;14.00;;;;;20.77;64.60;100545.25;5071947;27;45467;-60
2021/07/27 11:15:13;;;;;;;;;14.25;13.00;;;;;20.78;64.61;100540.75;5075021;27;45946;-61
2021/07/27 11:17:50;;;;;;;;;14.25;13.25;;;;;20.78;64.81;100543.41;5075845;28;45573;-60
2021/07/27 11:20:23;;;;;;;;;12.25;11.00;;;;;20.79;65.24;100551.19;5074378;27;45649;-60
2021/07/27 11:22:52;;;;;;;;;12.50;12.00;;;;;20.82;65.37;100561.47;5075281;27;45399;-60
2021/07/27 11:25:19;;;;;;;;;16.25;13.00;;;;;20.84;64.67;100550.63;5075329;27;45980;-60
2021/07/27 11:27:44;;;;;;;;;15.00;12.00;;;;;20.86;65.09;100559.25;5075822;28;45459;-60
2021/07/27 11:30:10;;;;;;;;;17.00;13.75;;;;;20.86;64.75;100556.56;5074730;27;61267;-61
2021/07/27 11:32:43;;;;;;;;;13.75;11.00;;;;;20.86;65.44;100560.06;5075391;27;46351;-60
2021/07/27 11:35:10;;;;;;;;;13.00;13.00;;;;;20.89;64.28;100559.66;5075300;27;45632;-60